Pembroke Pines, FL

9:12 AM EST on February 09, 2016 (GMT -0500)
ISLAND DR. AREA | | Change Station
CLOSE
Current Station
Personal Weather Station
Location: MIRAMAR, FL
Elevation: 7 ft
Nearby Weather Stations

Elev 7 ft 25.99 °N, 80.24 °W | Updated 22 seconds ago

Overcast
Overcast
61.9 °F
Feels Like 61.9 °F
N
5.0
Wind Variable Wind from North
Gusts 16.0 mph

Today
High -- | Low -- °F
--% Chance of Precip.
Yesterday
High -- | Low -- °F
Precip. -- in
Pressure 30.07 in
Visibility 10.0 miles
Clouds Few 4400 ft
Overcast 25000 ft
Dew Point 50 °F
Humidity 66%
Rainfall 0.00 in
Snow Depth Not available.
7:00 AM 6:09 PM
New Moon, 1% visible
METAR KFLL 091353Z 29013G19KT 10SM FEW044 OVC250 17/08 A3007 RMK AO2 SLP181 T01670078
Pressure 30.07 in
Visibility 10.0 miles
Clouds Few 4400 ft
Overcast 25000 ft
Dew Point 50 °F
Humidity 66%
Rainfall 0.00 in
Snow Depth Not available.
7:00 AM 6:09 PM
New Moon, 1% visible
METAR KFLL 091353Z 29013G19KT 10SM FEW044 OVC250 17/08 A3007 RMK AO2 SLP181 T01670078

10-Day Weather Forecast

Almanac

Astronomy

Feb. 09, 2016 Rise Set
Actual Time
Civil Twilight
Nautical Twilight
Astronomical Twilight
Moon
Length of Visible Light
Length of Day
Tomorrow will be .
, % of the Moon is Illuminated

Today's Extremes

State Highs State Lows

Community

WunderPhotos

Upload Photos

1,891,598 photos uploaded!

WunderBlog® & News

Nearby

Air Quality

  Air Quality AQ Index Pollutant
Not available.

Snow Depth

Station Depth Elevation

Earthquake Activity

City Distance Mag. Time & Date
Minimum magnitude displayed is 2.5.

Coastal Water Temperatures

Place Temperature

Stations

Nearby Weather Stations

Station Location Temp. Windchill Dew Point Humidity Wind Precip. Elev Updated Type
                   

Watches & Warnings

There are currently no watches in effect.